createdAt,value
2022-10-19T00:00:30.920Z,9.60
2022-10-19T00:02:57.503Z,9.60
2022-10-19T00:05:24.113Z,9.60
2022-10-19T00:07:50.782Z,9.60
2022-10-19T00:10:17.437Z,9.60
2022-10-19T00:12:44.072Z,9.50
2022-10-19T00:15:10.810Z,9.50
2022-10-19T00:17:37.387Z,9.50
2022-10-19T00:20:04.583Z,9.40
2022-10-19T00:22:31.452Z,9.30
2022-10-19T00:24:58.185Z,9.30
2022-10-19T00:27:24.800Z,9.30
2022-10-19T00:29:51.408Z,9.30
2022-10-19T00:32:18.013Z,9.20
2022-10-19T00:34:44.567Z,9.20
2022-10-19T00:37:11.140Z,9.10
2022-10-19T00:39:38.904Z,9.10
2022-10-19T00:42:05.764Z,9.10
2022-10-19T00:44:32.317Z,9.20
2022-10-19T00:47:03.232Z,9.20
2022-10-19T00:49:34.564Z,9.20
2022-10-19T00:52:16.121Z,9.20
2022-10-19T00:54:45.727Z,9.20
2022-10-19T00:57:13.253Z,9.10
2022-10-19T00:59:42.948Z,9.10
2022-10-19T01:02:10.170Z,9.10
2022-10-19T01:04:41.988Z,9.10
2022-10-19T01:07:09.029Z,9.10
2022-10-19T01:09:35.618Z,9.00
2022-10-19T01:12:18.853Z,9.00
2022-10-19T01:15:18.031Z,9.00
2022-10-19T01:17:56.560Z,8.90
2022-10-19T01:20:46.177Z,8.80
2022-10-19T01:23:33.694Z,8.80
2022-10-19T01:26:15.131Z,8.70
2022-10-19T01:28:51.147Z,8.70
2022-10-19T01:31:36.774Z,8.70
2022-10-19T01:34:15.258Z,8.60
2022-10-19T01:36:52.163Z,8.60
2022-10-19T01:39:49.811Z,8.60
2022-10-19T01:42:26.580Z,8.60
2022-10-19T01:45:02.581Z,8.60
2022-10-19T01:47:47.680Z,8.50
2022-10-19T01:50:24.609Z,8.50
2022-10-19T01:52:52.804Z,8.50
2022-10-19T01:55:21.464Z,8.50
2022-10-19T01:57:58.309Z,8.40
2022-10-19T02:00:27.090Z,8.40
2022-10-19T02:02:54.718Z,8.40
2022-10-19T02:05:24.504Z,8.30
2022-10-19T02:07:57.974Z,8.30
2022-10-19T02:10:25.585Z,8.20
2022-10-19T02:12:54.701Z,8.20
2022-10-19T02:15:23.663Z,8.20
2022-10-19T02:17:53.507Z,8.20
2022-10-19T02:20:21.033Z,8.10
2022-10-19T02:22:47.598Z,8.10
2022-10-19T02:25:15.000Z,8.10
2022-10-19T02:27:42.289Z,8.00
2022-10-19T02:30:15.064Z,8.00
2022-10-19T02:32:43.040Z,8.00
2022-10-19T02:35:11.856Z,8.00
2022-10-19T02:37:40.154Z,8.00
2022-10-19T02:40:08.051Z,8.00
2022-10-19T02:42:43.555Z,8.00
2022-10-19T02:45:25.696Z,7.90
2022-10-19T02:47:53.971Z,7.80
2022-10-19T02:50:21.656Z,7.80
2022-10-19T02:52:48.418Z,7.80
2022-10-19T02:55:15.205Z,7.80
2022-10-19T02:57:41.816Z,7.80
2022-10-19T03:00:09.041Z,7.80
2022-10-19T03:02:35.756Z,7.80
2022-10-19T03:05:02.655Z,7.70
2022-10-19T03:07:29.500Z,7.70
2022-10-19T03:09:56.138Z,7.70
2022-10-19T03:12:22.795Z,7.60
2022-10-19T03:14:49.409Z,7.60
2022-10-19T03:17:15.993Z,7.60
2022-10-19T03:19:42.528Z,7.60
2022-10-19T03:22:09.123Z,7.60
2022-10-19T03:24:35.792Z,7.50
2022-10-19T03:27:02.334Z,7.50
2022-10-19T03:29:28.945Z,7.50
2022-10-19T03:31:55.608Z,7.50
2022-10-19T03:34:22.343Z,7.50
2022-10-19T03:36:48.963Z,7.50
2022-10-19T03:39:16.974Z,7.40
2022-10-19T03:41:43.931Z,7.40
2022-10-19T03:44:11.884Z,7.40
2022-10-19T03:46:39.265Z,7.40
2022-10-19T03:49:06.149Z,7.40
2022-10-19T03:51:33.284Z,7.40
2022-10-19T03:54:04.963Z,7.30
2022-10-19T03:56:33.429Z,7.30
2022-10-19T03:59:02.210Z,7.30
2022-10-19T04:01:35.073Z,7.20
2022-10-19T04:04:06.953Z,7.10
2022-10-19T04:06:34.639Z,7.10
2022-10-19T04:09:01.583Z,7.10
2022-10-19T04:11:30.013Z,7.00
2022-10-19T04:13:58.343Z,7.00
2022-10-19T04:16:27.251Z,7.10
2022-10-19T04:18:54.489Z,7.10
2022-10-19T04:21:32.971Z,7.10
2022-10-19T04:24:14.983Z,7.10
2022-10-19T04:26:42.957Z,7.20
2022-10-19T04:29:10.858Z,7.10
2022-10-19T04:31:38.722Z,7.00
2022-10-19T04:34:06.115Z,7.00
2022-10-19T04:36:33.464Z,7.00
2022-10-19T04:39:00.382Z,7.00
2022-10-19T04:41:27.081Z,7.00
2022-10-19T04:43:58.905Z,7.00
2022-10-19T04:46:26.620Z,7.10
2022-10-19T04:48:53.591Z,7.10
2022-10-19T04:51:20.890Z,7.10
2022-10-19T04:53:48.354Z,7.00
2022-10-19T04:56:21.339Z,7.00
2022-10-19T04:58:49.249Z,6.90
2022-10-19T05:01:20.952Z,6.90
2022-10-19T05:03:48.482Z,6.90
2022-10-19T05:06:15.488Z,6.90
2022-10-19T05:08:42.141Z,6.90
2022-10-19T05:11:12.539Z,6.80
2022-10-19T05:13:39.232Z,6.70
2022-10-19T05:16:07.899Z,6.70
2022-10-19T05:18:35.057Z,6.70
2022-10-19T05:21:07.224Z,6.70
2022-10-19T05:23:34.086Z,6.70
2022-10-19T05:26:09.804Z,6.70
2022-10-19T05:28:37.477Z,6.80
2022-10-19T05:31:10.770Z,6.70
2022-10-19T05:33:38.072Z,6.70
2022-10-19T05:36:27.905Z,6.80
2022-10-19T05:38:56.342Z,6.70
2022-10-19T05:41:24.540Z,6.70
2022-10-19T05:43:56.958Z,6.70
2022-10-19T05:46:24.653Z,6.70
2022-10-19T05:48:51.255Z,6.70
2022-10-19T05:51:20.199Z,6.70
2022-10-19T05:53:47.148Z,6.60
2022-10-19T05:56:21.317Z,6.60
2022-10-19T05:58:48.662Z,6.70
2022-10-19T06:01:16.370Z,6.70
2022-10-19T06:03:43.601Z,6.70
2022-10-19T06:06:10.577Z,6.70
2022-10-19T06:08:38.482Z,6.70
2022-10-19T06:11:13.880Z,6.70
2022-10-19T06:13:42.431Z,6.70
2022-10-19T06:16:10.341Z,6.60
2022-10-19T06:18:37.787Z,6.60
2022-10-19T06:21:10.533Z,6.60
2022-10-19T06:23:37.793Z,6.60
2022-10-19T06:26:07.141Z,6.60
2022-10-19T06:28:34.770Z,6.70
2022-10-19T06:31:01.436Z,6.70
2022-10-19T06:33:29.868Z,6.70
2022-10-19T06:35:56.420Z,6.70
2022-10-19T06:38:22.984Z,6.70
2022-10-19T06:40:49.554Z,6.70
2022-10-19T06:43:16.144Z,6.70
2022-10-19T06:45:42.715Z,6.70
2022-10-19T06:48:09.351Z,6.70
2022-10-19T06:50:35.948Z,6.80
2022-10-19T06:53:02.616Z,6.90
2022-10-19T06:55:29.325Z,6.90
2022-10-19T06:57:55.888Z,6.90
2022-10-19T07:00:22.446Z,6.80
2022-10-19T07:02:49.024Z,6.90
2022-10-19T07:05:15.733Z,7.00
2022-10-19T07:07:42.391Z,7.10
2022-10-19T07:10:09.195Z,7.20
2022-10-19T07:12:35.754Z,7.30
2022-10-19T07:15:02.303Z,7.30
2022-10-19T07:17:28.889Z,7.30
2022-10-19T07:19:55.444Z,7.40
2022-10-19T07:22:27.844Z,7.50
2022-10-19T07:24:54.796Z,7.70
2022-10-19T07:27:21.385Z,7.90
2022-10-19T07:29:47.963Z,8.00
2022-10-19T07:32:14.520Z,8.20
2022-10-19T07:34:41.148Z,8.30
2022-10-19T07:37:07.756Z,8.40
2022-10-19T07:39:34.328Z,8.40
2022-10-19T07:42:00.947Z,8.50
2022-10-19T07:44:27.876Z,8.60
2022-10-19T07:46:54.480Z,8.70
2022-10-19T07:49:21.689Z,8.80
2022-10-19T07:51:48.314Z,8.90
2022-10-19T07:54:15.085Z,9.00
2022-10-19T07:56:41.708Z,9.10
2022-10-19T07:59:09.648Z,9.30
2022-10-19T08:01:41.120Z,9.40
2022-10-19T08:06:54.397Z,9.70
2022-10-19T08:09:50.755Z,9.90
2022-10-19T08:12:12.360Z,9.90
2022-10-19T08:14:41.283Z,10.00
2022-10-19T08:17:11.413Z,10.20
2022-10-19T08:19:43.029Z,10.30
2022-10-19T08:22:09.846Z,10.40
2022-10-19T08:24:36.462Z,10.60
2022-10-19T08:27:03.151Z,10.80
2022-10-19T08:29:31.503Z,11.00
2022-10-19T08:31:59.076Z,11.20
2022-10-19T08:34:25.889Z,11.40
2022-10-19T08:36:52.445Z,11.40
2022-10-19T08:39:19.031Z,11.60
2022-10-19T08:44:22.557Z,11.90
2022-10-19T08:47:08.749Z,12.20
2022-10-19T08:49:36.413Z,12.20
2022-10-19T08:52:12.552Z,12.20
2022-10-19T08:54:59.433Z,12.10
2022-10-19T08:57:37.682Z,12.40
2022-10-19T09:00:21.443Z,12.50
2022-10-19T09:02:57.136Z,12.50
2022-10-19T09:05:35.821Z,12.60
2022-10-19T09:08:02.886Z,12.70
2022-10-19T09:10:35.593Z,12.90
2022-10-19T09:13:15.078Z,12.80
2022-10-19T09:15:47.305Z,12.90
2022-10-19T09:18:22.499Z,13.20
2022-10-19T09:21:16.699Z,13.40
2022-10-19T09:23:46.858Z,13.50
2022-10-19T09:26:19.254Z,13.60
2022-10-19T09:28:49.403Z,13.70
2022-10-19T09:31:31.470Z,13.80
2022-10-19T09:34:03.019Z,14.00
2022-10-19T09:36:56.634Z,14.30
2022-10-19T09:39:27.078Z,14.40
2022-10-19T09:41:57.377Z,14.40
2022-10-19T09:44:25.306Z,14.30
2022-10-19T09:47:07.978Z,14.40
2022-10-19T09:49:46.115Z,14.30
2022-10-19T09:52:31.533Z,14.40
2022-10-19T09:55:17.965Z,14.50
2022-10-19T09:57:46.536Z,14.60
2022-10-19T10:00:21.130Z,14.80
2022-10-19T10:02:55.499Z,14.70
2022-10-19T10:05:40.348Z,14.50
2022-10-19T10:08:15.607Z,14.30
2022-10-19T10:10:48.031Z,14.40
2022-10-19T10:13:18.913Z,14.40
2022-10-19T10:16:01.224Z,14.40
2022-10-19T10:18:29.906Z,14.60
2022-10-19T10:20:59.561Z,14.20
2022-10-19T10:23:29.623Z,14.30
2022-10-19T10:25:57.760Z,14.50
2022-10-19T10:28:27.365Z,14.40
2022-10-19T10:31:00.609Z,14.40
2022-10-19T10:33:45.558Z,14.30
2022-10-19T10:36:13.046Z,14.50
2022-10-19T10:38:48.889Z,14.40
2022-10-19T10:41:23.206Z,14.40
2022-10-19T10:43:58.622Z,14.60
2022-10-19T10:46:34.367Z,14.80
2022-10-19T10:49:16.115Z,14.70
2022-10-19T10:51:52.910Z,14.50
2022-10-19T10:54:38.657Z,14.40
2022-10-19T10:57:15.515Z,14.30
2022-10-19T10:59:55.762Z,14.50
2022-10-19T11:02:41.116Z,14.40
2022-10-19T11:05:53.143Z,14.70
2022-10-19T11:08:49.193Z,15.10
2022-10-19T11:11:18.796Z,15.20
2022-10-19T11:14:21.375Z,15.10
2022-10-19T11:16:50.757Z,15.10
2022-10-19T11:19:40.380Z,15.00
2022-10-19T11:22:13.018Z,15.20
2022-10-19T11:25:02.453Z,15.30
2022-10-19T11:27:59.919Z,15.20
2022-10-19T11:30:26.951Z,15.40
2022-10-19T11:33:31.355Z,15.50
2022-10-19T11:36:03.772Z,15.80
2022-10-19T11:38:48.152Z,15.70
2022-10-19T11:41:18.880Z,15.60
2022-10-19T11:44:11.124Z,15.40
2022-10-19T11:46:56.187Z,15.60
2022-10-19T11:49:39.410Z,15.70
2022-10-19T11:52:35.221Z,15.50
2022-10-19T11:55:27.243Z,15.30
2022-10-19T11:58:07.523Z,15.40
2022-10-19T12:01:00.088Z,15.40
2022-10-19T12:04:01.835Z,15.50
2022-10-19T12:06:51.274Z,15.60
2022-10-19T12:09:30.074Z,15.70
2022-10-19T12:12:04.762Z,15.70
2022-10-19T12:14:36.615Z,15.70
2022-10-19T12:19:53.207Z,15.80
2022-10-19T12:22:24.525Z,15.80
2022-10-19T12:24:55.337Z,16.00
2022-10-19T12:27:38.925Z,15.90
2022-10-19T12:30:18.540Z,15.90
2022-10-19T12:33:02.963Z,15.90
2022-10-19T12:35:50.831Z,15.80
2022-10-19T12:38:35.081Z,16.00
2022-10-19T12:41:20.910Z,16.20
2022-10-19T12:44:33.969Z,16.00
2022-10-19T12:47:10.327Z,15.80
2022-10-19T12:49:44.386Z,15.60
2022-10-19T12:52:12.329Z,15.60
2022-10-19T12:54:40.967Z,15.80
2022-10-19T12:57:29.485Z,15.80
2022-10-19T13:00:03.527Z,15.80
2022-10-19T13:02:34.538Z,15.70
2022-10-19T13:05:01.656Z,15.70
2022-10-19T13:07:33.475Z,15.70
2022-10-19T13:10:04.072Z,15.70
2022-10-19T13:12:44.075Z,15.80
2022-10-19T13:15:33.809Z,15.90
2022-10-19T13:18:02.218Z,16.20
2022-10-19T13:20:29.169Z,16.20
2022-10-19T13:23:03.462Z,16.00
2022-10-19T13:25:30.532Z,15.80
2022-10-19T13:28:01.956Z,15.70
2022-10-19T13:30:46.519Z,15.60
2022-10-19T13:33:28.555Z,15.60
2022-10-19T13:36:02.291Z,15.80
2022-10-19T13:41:26.646Z,15.70
2022-10-19T13:44:15.057Z,15.70
2022-10-19T13:47:07.866Z,15.60
2022-10-19T13:50:01.792Z,15.60
2022-10-19T13:53:00.641Z,15.60
2022-10-19T13:55:56.101Z,15.90
2022-10-19T13:59:00.057Z,16.00
2022-10-19T14:02:00.550Z,16.00
2022-10-19T14:04:42.189Z,16.00
2022-10-19T14:07:26.115Z,15.70
2022-10-19T14:10:14.749Z,15.60
2022-10-19T14:12:43.545Z,15.50
2022-10-19T14:15:23.723Z,15.40
2022-10-19T14:17:50.429Z,15.30
2022-10-19T14:20:31.035Z,15.30
2022-10-19T14:22:58.652Z,15.40
2022-10-19T14:25:27.569Z,15.50
2022-10-19T14:28:06.683Z,15.60
2022-10-19T14:30:35.673Z,15.60
2022-10-19T14:33:08.789Z,15.50
2022-10-19T14:35:39.357Z,15.60
2022-10-19T14:38:08.494Z,15.60
2022-10-19T14:40:40.020Z,15.40
2022-10-19T14:43:27.837Z,15.60
2022-10-19T14:46:06.507Z,15.60
2022-10-19T14:48:40.947Z,15.80
2022-10-19T14:51:20.695Z,15.60
2022-10-19T14:53:53.237Z,15.60
2022-10-19T14:56:28.694Z,15.60
2022-10-19T14:59:04.088Z,15.60
2022-10-19T15:01:30.755Z,15.50
2022-10-19T15:03:57.524Z,15.70
2022-10-19T15:06:30.099Z,15.60
2022-10-19T15:09:12.026Z,15.50
2022-10-19T15:11:47.298Z,15.30
2022-10-19T15:14:28.214Z,15.20
2022-10-19T15:16:57.927Z,15.30
2022-10-19T15:19:32.221Z,15.30
2022-10-19T15:22:19.034Z,15.20
2022-10-19T15:25:06.422Z,15.10
2022-10-19T15:27:39.062Z,15.10
2022-10-19T15:30:17.870Z,15.00
2022-10-19T15:32:46.917Z,15.10
2022-10-19T15:35:25.297Z,15.00
2022-10-19T15:38:00.586Z,14.90
2022-10-19T15:40:36.641Z,14.90
2022-10-19T15:43:32.385Z,14.70
2022-10-19T15:46:32.774Z,14.50
2022-10-19T15:49:16.865Z,14.50
2022-10-19T15:51:47.981Z,14.50
2022-10-19T15:54:17.055Z,14.50
2022-10-19T15:56:50.773Z,14.40
2022-10-19T15:59:21.988Z,14.30
2022-10-19T16:01:53.698Z,14.30
2022-10-19T16:04:21.693Z,14.20
2022-10-19T16:06:48.299Z,14.10
2022-10-19T16:09:21.333Z,14.20
2022-10-19T16:11:48.608Z,14.10
2022-10-19T16:16:49.954Z,14.00
2022-10-19T16:19:16.519Z,13.90
2022-10-19T16:21:47.939Z,13.90
2022-10-19T16:24:16.732Z,13.80
2022-10-19T16:26:43.291Z,13.70
2022-10-19T16:29:09.853Z,13.70
2022-10-19T16:31:37.845Z,13.70
2022-10-19T16:34:04.451Z,13.60
2022-10-19T16:36:30.995Z,13.60
2022-10-19T16:39:00.967Z,13.50
2022-10-19T16:41:27.626Z,13.60
2022-10-19T16:43:55.638Z,13.50
2022-10-19T16:46:23.423Z,13.40
2022-10-19T16:48:50.487Z,13.40
2022-10-19T16:51:38.182Z,13.50
2022-10-19T16:54:07.645Z,13.30
2022-10-19T16:56:35.225Z,13.20
2022-10-19T16:59:06.575Z,13.20
2022-10-19T17:01:35.100Z,13.00
2022-10-19T17:04:01.728Z,13.10
2022-10-19T17:06:28.976Z,13.10
2022-10-19T17:11:44.289Z,13.00
2022-10-19T17:14:12.757Z,13.10
2022-10-19T17:16:40.144Z,13.00
2022-10-19T17:19:07.928Z,12.90
2022-10-19T17:21:39.470Z,12.90
2022-10-19T17:24:08.741Z,12.80
2022-10-19T17:26:38.428Z,12.80
2022-10-19T17:29:06.670Z,12.90
2022-10-19T17:31:33.751Z,12.90
2022-10-19T17:34:01.791Z,12.80
2022-10-19T17:36:30.868Z,12.80
2022-10-19T17:39:01.570Z,12.80
2022-10-19T17:41:29.210Z,12.90
2022-10-19T17:43:56.765Z,12.80
2022-10-19T17:46:25.772Z,12.80
2022-10-19T17:48:52.539Z,12.60
2022-10-19T17:51:24.759Z,12.50
2022-10-19T17:53:51.617Z,12.50
2022-10-19T17:56:20.564Z,12.40
2022-10-19T17:58:48.173Z,12.60
2022-10-19T18:01:16.509Z,12.50
2022-10-19T18:03:43.429Z,12.60
2022-10-19T18:06:22.243Z,12.50
2022-10-19T18:08:53.677Z,12.50
2022-10-19T18:11:21.818Z,12.50
2022-10-19T18:13:49.395Z,12.40
2022-10-19T18:16:19.426Z,12.30
2022-10-19T18:18:51.697Z,12.50
2022-10-19T18:21:24.762Z,12.40
2022-10-19T18:23:53.328Z,12.30
2022-10-19T18:26:22.855Z,12.30
2022-10-19T18:28:50.798Z,12.40
2022-10-19T18:31:23.589Z,12.30
2022-10-19T18:33:56.791Z,12.30
2022-10-19T18:36:23.661Z,12.40
2022-10-19T18:38:51.827Z,12.40
2022-10-19T18:41:18.814Z,12.30
2022-10-19T18:43:50.584Z,12.30
2022-10-19T18:46:18.502Z,12.20
2022-10-19T18:48:45.309Z,12.30
2022-10-19T18:51:13.027Z,12.10
2022-10-19T18:53:39.692Z,12.00
2022-10-19T18:56:09.190Z,12.20
2022-10-19T18:58:36.553Z,12.00
2022-10-19T19:01:12.059Z,12.00
2022-10-19T19:03:40.984Z,11.80
2022-10-19T19:06:10.129Z,11.90
2022-10-19T19:08:36.866Z,11.90
2022-10-19T19:11:16.716Z,11.90
2022-10-19T19:13:54.872Z,11.80
2022-10-19T19:16:21.888Z,11.70
2022-10-19T19:18:48.991Z,11.80
2022-10-19T19:21:20.383Z,11.80
2022-10-19T19:23:48.346Z,11.90
2022-10-19T19:26:16.696Z,11.80
2022-10-19T19:28:46.406Z,11.70
2022-10-19T19:31:17.274Z,11.70
2022-10-19T19:33:44.629Z,11.70
2022-10-19T19:36:12.761Z,11.70
2022-10-19T19:38:39.428Z,11.70
2022-10-19T19:41:08.378Z,11.60
2022-10-19T19:43:39.214Z,11.50
2022-10-19T19:46:12.620Z,11.50
2022-10-19T19:48:40.639Z,11.50
2022-10-19T19:51:12.912Z,11.40
2022-10-19T19:53:39.788Z,11.40
2022-10-19T19:56:07.801Z,11.40
2022-10-19T19:58:34.821Z,11.40
2022-10-19T20:01:12.151Z,11.40
2022-10-19T20:03:39.331Z,11.40
2022-10-19T20:06:06.237Z,11.40
2022-10-19T20:08:33.362Z,11.40
2022-10-19T20:11:05.052Z,11.40
2022-10-19T20:13:32.209Z,11.30
2022-10-19T20:16:02.481Z,11.20
2022-10-19T20:18:29.633Z,11.30
2022-10-19T20:21:01.398Z,11.20
2022-10-19T20:23:28.614Z,11.10
2022-10-19T20:25:56.285Z,11.10
2022-10-19T20:28:27.179Z,11.10
2022-10-19T20:31:05.982Z,11.00
2022-10-19T20:33:34.841Z,11.00
2022-10-19T20:36:12.964Z,11.00
2022-10-19T20:38:40.599Z,11.00
2022-10-19T20:41:09.289Z,11.00
2022-10-19T20:43:37.180Z,10.90
2022-10-19T20:46:11.282Z,11.00
2022-10-19T20:48:37.998Z,10.80
2022-10-19T20:51:17.180Z,10.80
2022-10-19T20:53:46.413Z,10.70
2022-10-19T20:56:15.621Z,10.80
2022-10-19T20:58:43.595Z,10.80
2022-10-19T21:01:17.158Z,10.90
2022-10-19T21:03:55.241Z,11.00
2022-10-19T21:06:24.025Z,11.00
2022-10-19T21:08:51.336Z,10.90
2022-10-19T21:11:24.251Z,10.90
2022-10-19T21:13:58.990Z,10.80
2022-10-19T21:16:30.239Z,10.70
2022-10-19T21:18:57.403Z,10.70
2022-10-19T21:21:27.641Z,10.70
2022-10-19T21:24:06.223Z,10.60
2022-10-19T21:26:35.095Z,10.40
2022-10-19T21:29:02.456Z,10.60
2022-10-19T21:31:29.230Z,10.50
2022-10-19T21:33:55.791Z,10.50
2022-10-19T21:36:25.061Z,10.50
2022-10-19T21:38:51.643Z,10.50
2022-10-19T21:41:23.857Z,10.40
2022-10-19T21:43:53.509Z,10.40
2022-10-19T21:46:21.802Z,10.40
2022-10-19T21:48:49.418Z,10.50
2022-10-19T21:51:21.462Z,10.40
2022-10-19T21:53:48.119Z,10.40
2022-10-19T21:56:15.874Z,10.40
2022-10-19T21:58:50.247Z,10.40
2022-10-19T22:01:18.118Z,10.40
2022-10-19T22:03:44.768Z,10.30
2022-10-19T22:06:11.822Z,10.30
2022-10-19T22:08:39.150Z,10.30
2022-10-19T22:11:07.299Z,10.40
2022-10-19T22:13:35.507Z,10.30
2022-10-19T22:16:08.077Z,10.30
2022-10-19T22:18:35.215Z,10.30
2022-10-19T22:21:07.143Z,10.30
2022-10-19T22:23:33.722Z,10.30
2022-10-19T22:26:00.408Z,10.20
2022-10-19T22:28:27.823Z,10.30
2022-10-19T22:30:59.044Z,10.20
2022-10-19T22:33:25.916Z,10.20
2022-10-19T22:35:57.716Z,10.20
2022-10-19T22:38:24.358Z,10.20
2022-10-19T22:41:47.404Z,10.20
2022-10-19T22:44:14.034Z,10.10
2022-10-19T22:46:40.616Z,10.00
2022-10-19T22:51:40.443Z,10.10
2022-10-19T22:54:07.088Z,10.00
2022-10-19T22:56:33.766Z,10.00
2022-10-19T22:59:01.585Z,10.00
2022-10-19T23:01:28.312Z,10.10
2022-10-19T23:03:55.559Z,10.10
2022-10-19T23:06:22.417Z,10.10
2022-10-19T23:08:49.476Z,10.10
2022-10-19T23:11:16.700Z,10.10
2022-10-19T23:13:43.812Z,10.10
2022-10-19T23:16:10.521Z,10.00
2022-10-19T23:18:39.186Z,10.00
2022-10-19T23:21:08.736Z,9.90
2022-10-19T23:23:35.743Z,10.00
2022-10-19T23:26:14.315Z,10.00
2022-10-19T23:28:42.832Z,10.10
2022-10-19T23:31:30.379Z,10.10
2022-10-19T23:33:57.031Z,10.00
2022-10-19T23:36:26.805Z,10.00
2022-10-19T23:38:54.678Z,10.00
2022-10-19T23:41:22.051Z,10.00
2022-10-19T23:43:48.777Z,10.00
2022-10-19T23:46:15.524Z,10.00
2022-10-19T23:48:42.155Z,10.10
2022-10-19T23:51:14.388Z,10.00
2022-10-19T23:53:42.918Z,9.90
2022-10-19T23:56:14.937Z,10.00
2022-10-19T23:58:41.821Z,9.90
